Flight Track Log - Related Links

Times and Time Zones

All times are in EDT time to prevent confusion due to time zone crossing. See the AWE479 flight status page for this flight to view local times or setup timezone preferences in your user account.

Time Position Orientation Groundspeed Altitude Reporting Facility
EDT Latitude Longitude Course Direction KTS MPH feet Rate Location/Type
Thu 07:58:57 AM 35.2470 -80.9590 333° Northwest 188 216 2,200  Level FlightAware ADS-B
Thu 07:59:12 AM 35.2590 -80.9700 323° Northwest 213 245 2,500 1,050 Climbing FlightAware ADS-B
Thu 07:59:37 AM 35.2800 -80.9920 319° Northwest 251 289 2,900 1,200 Climbing FlightAware ADS-B
Thu 07:59:52 AM 35.2900 -81.0070 309° West 264 304 3,300 2,000 Climbing FlightAware ADS-B
Thu 08:00:07 AM 35.2940 -81.0300 282° West 270 311 3,900 2,057 Climbing FlightAware ADS-B
Thu 08:00:27 AM 35.2910 -81.0540 261° West 280 322 4,500 2,667 Climbing FlightAware ADS-B
Thu 08:00:52 AM 35.2810 -81.0960 254° West 280 322 5,900 2,080 Climbing FlightAware ADS-B
Thu 08:01:42 AM 35.2610 -81.1750 253° West 280 322 7,100 2,839 Climbing FlightAware ADS-B
Thu 08:02:25 AM 35.2422 -81.2492 253° West 294 338 10,300 2,796 Climbing Atlanta Center
Thu 08:03:25 AM 35.2153 -81.3567 253° West 311 358 11,900 1,870 Climbing Atlanta Center
Thu 08:09:19 AM 35.0978 -82.1566 253° West 423 487 23,200 1,906 Climbing FlightAware ADS-B
Thu 08:09:49 AM 35.0922 -82.2269 264° West 422 486 24,100 1,800 Climbing FlightAware ADS-B
Thu 08:09:59 AM 35.0918 -82.2505 269° West 422 486 24,400 2,000 Climbing FlightAware ADS-B
Thu 08:10:10 AM 35.0937 -82.2758 275° West 421 484 24,800 2,333 Climbing FlightAware ADS-B
Thu 08:10:17 AM 35.0965 -82.2938 281° West 420 483 25,100 2,053 Climbing FlightAware ADS-B
Thu 08:10:48 AM 35.1136 -82.3619 287° West 415 478 26,100 1,452 Climbing FlightAware ADS-B
Thu 08:11:19 AM 35.1315 -82.4320 287° West 423 487 26,600 689 Climbing FlightAware ADS-B
Thu 08:11:49 AM 35.1497 -82.5032 287° West 436 502 26,800 455 Climbing FlightAware ADS-B
Thu 08:12:25 AM 35.1714 -82.5881 287° West 446 513 27,100 571 Climbing FlightAware ADS-B
Thu 08:13:13 AM 35.2014 -82.7061 287° West 463 533 27,600 692 Climbing FlightAware ADS-B
Thu 08:13:43 AM 35.2207 -82.7819 287° West 469 540 28,000 984 Climbing FlightAware ADS-B
Thu 08:14:14 AM 35.2409 -82.8620 287° West 470 541 28,600 1,219 Climbing FlightAware ADS-B
Thu 08:14:47 AM 35.2619 -82.9448 287° West 468 539 29,300 1,406 Climbing FlightAware ADS-B
Thu 08:15:18 AM 35.2814 -83.0222 287° West 461 531 30,100 1,279 Climbing FlightAware ADS-B
Thu 08:15:48 AM 35.3003 -83.0974 287° West 464 534 30,600 984 Climbing FlightAware ADS-B
Thu 08:16:19 AM 35.3197 -83.1747 287° West 463 533 31,100 952 Climbing FlightAware ADS-B
Thu 08:16:51 AM 35.3399 -83.2557 287° West 465 535 31,600 968 Climbing FlightAware ADS-B
Thu 08:17:21 AM 35.3588 -83.3319 287° West 464 534 32,100 1,125 Climbing FlightAware ADS-B
Thu 08:17:55 AM 35.3799 -83.4170 287° West 464 534 32,800 1,254 Climbing FlightAware ADS-B
Thu 08:18:28 AM 35.3999 -83.4979 287° West 454 522 33,500 1,125 Climbing FlightAware ADS-B
Thu 08:18:59 AM 35.4182 -83.5719 287° West 446 513 34,000 492 Climbing FlightAware ADS-B
Thu 08:19:29 AM 35.4360 -83.6449 287° West 442 509 34,000  Level FlightAware ADS-B
Thu 08:20:00 AM 35.4542 -83.7189 287° West 445 512 34,000  Level FlightAware ADS-B
Thu 08:20:32 AM 35.4733 -83.7976 287° West 447 514 34,000  Level FlightAware ADS-B
Thu 08:21:02 AM 35.4912 -83.8707 287° West 448 516 34,000  Level FlightAware ADS-B
Thu 08:21:34 AM 35.5098 -83.9477 287° West 449 517 34,000  Level FlightAware ADS-B
Thu 08:22:04 AM 35.5279 -84.0223 287° West 450 518 34,000  Level FlightAware ADS-B
Thu 08:22:35 AM 35.5458 -84.0965 287° West 451 519 34,000  Level FlightAware ADS-B
Thu 08:23:05 AM 35.5637 -84.1712 286° West 451 519 34,000  Level FlightAware ADS-B
Thu 08:23:35 AM 35.5816 -84.2456 286° West 452 520 34,000 295 Level FlightAware ADS-B
Thu 08:24:06 AM 35.5994 -84.3202 286° West 452 520 34,300 590 Climbing FlightAware ADS-B
Thu 08:24:36 AM 35.6171 -84.3945 286° West 453 521 34,600 800 Climbing FlightAware ADS-B
Thu 08:25:06 AM 35.6346 -84.4682 286° West 448 516 35,100 984 Climbing FlightAware ADS-B
Thu 08:25:37 AM 35.6524 -84.5432 286° West 442 509 35,600 689 Climbing FlightAware ADS-B
Thu 08:26:07 AM 35.6696 -84.6165 286° West 446 513 35,800 393 Climbing FlightAware ADS-B
Thu 08:26:38 AM 35.6872 -84.6907 286° West 444 511 36,000 179 Climbing FlightAware ADS-B
Thu 08:27:14 AM 35.7079 -84.7788 286° West 439 505 36,000  Level FlightAware ADS-B
Thu 08:27:44 AM 35.7247 -84.8505 286° West 438 504 36,000  Level FlightAware ADS-B
Thu 08:28:15 AM 35.7421 -84.9255 286° West 441 507 36,000  Level FlightAware ADS-B
Thu 08:28:46 AM 35.7591 -84.9982 286° West 442 509 36,000  Level FlightAware ADS-B
Thu 08:29:21 AM 35.7788 -85.0830 286° West 442 509 36,000  Level FlightAware ADS-B
Thu 08:29:53 AM 35.7966 -85.1602 286° West 443 510 36,000  Level FlightAware ADS-B
Thu 08:30:23 AM 35.8134 -85.2334 286° West 443 510 36,000  Level FlightAware ADS-B
Thu 08:31:00 AM 35.8340 -85.3226 286° West 443 510 36,000  Level FlightAware ADS-B
Thu 08:31:30 AM 35.8508 -85.3961 286° West 440 506 36,000  Level FlightAware ADS-B
Thu 08:32:04 AM 35.8695 -85.4782 286° West 442 509 36,000  Level FlightAware ADS-B
Thu 08:32:34 AM 35.8861 -85.5511 286° West 441 507 36,000  Level FlightAware ADS-B
Thu 08:33:06 AM 35.9037 -85.6291 286° West 441 507 36,000  Level FlightAware ADS-B
Thu 08:33:36 AM 35.9203 -85.7022 286° West 441 507 36,000  Level FlightAware ADS-B
Thu 08:34:07 AM 35.9368 -85.7756 286° West 441 507 36,000  Level FlightAware ADS-B
Thu 08:35:02 AM 35.9650 -85.9000 286° West 441 507 36,000  Level FlightAware ADS-B
Thu 08:35:14 AM 35.9735 -85.9393 285° West 442 509 36,000  Level FlightAware ADS-B
Thu 08:35:45 AM 35.9901 -86.0136 285° West 441 507 36,000  Level FlightAware ADS-B
Thu 08:36:01 AM 35.9991 -86.0525 286° West 440 506 36,000 120 Level FlightAware ADS-B
Thu 08:36:35 AM 36.0263 -86.1297 294° West 439 505 36,100  Climbing FlightAware ADS-B
Thu 08:37:05 AM 36.0530 -86.1972 296° West 437 503 36,000 -97 Descending FlightAware ADS-B
Thu 08:37:37 AM 36.0817 -86.2704 296° West 436 502 36,000  Level FlightAware ADS-B
Thu 08:38:08 AM 36.1084 -86.3387 296° West 435 501 36,000  Level FlightAware ADS-B
Thu 08:38:39 AM 36.1361 -86.4089 296° West 433 498 36,000  Level FlightAware ADS-B
Thu 08:39:09 AM 36.1626 -86.4762 296° West 433 498 36,000  Level FlightAware ADS-B
Thu 08:39:23 AM 36.1743 -86.5062 296° West 434 499 36,000  Level FlightAware ADS-B
Thu 08:39:48 AM 36.1924 -86.5646 291° West 433 498 36,000  Level FlightAware ADS-B
Thu 08:40:37 AM 36.2150 -86.6770 284° West 433 498 36,000  Level FlightAware ADS-B
Thu 08:40:46 AM 36.2194 -86.7033 282° West 433 498 36,000  Level FlightAware ADS-B
Thu 08:41:17 AM 36.2320 -86.7740 282° West 434 499 36,000  Level FlightAware ADS-B
Thu 08:42:02 AM 36.2530 -86.8850 283° West 434 499 36,000 71 Level FlightAware ADS-B
Thu 08:42:42 AM 36.2700 -86.9820 282° West 434 499 36,100  Climbing FlightAware ADS-B
Thu 08:43:27 AM 36.2900 -87.0890 283° West 434 499 36,000 -71 Descending FlightAware ADS-B
Thu 08:44:07 AM 36.3070 -87.1870 282° West 434 499 36,000  Level FlightAware ADS-B
Thu 08:44:52 AM 36.3270 -87.2990 283° West 433 498 36,000  Level FlightAware ADS-B
Thu 08:45:32 AM 36.3440 -87.3930 283° West 432 497 36,000  Level FlightAware ADS-B
Thu 08:46:12 AM 36.3610 -87.4910 282° West 431 496 36,000  Level FlightAware ADS-B
Thu 08:46:52 AM 36.3780 -87.5880 282° West 432 497 36,000  Level FlightAware ADS-B
Thu 08:47:37 AM 36.3970 -87.6940 283° West 433 498 36,000  Level FlightAware ADS-B
Thu 08:48:22 AM 36.4170 -87.8070 282° West 435 501 36,000  Level FlightAware ADS-B
Thu 08:49:02 AM 36.4340 -87.9050 282° West 436 502 36,000  Level FlightAware ADS-B
Thu 08:49:42 AM 36.4510 -88.0020 282° West 438 504 36,000  Level FlightAware ADS-B
Thu 08:50:27 AM 36.4690 -88.1120 282° West 441 507 36,000  Level FlightAware ADS-B
Thu 08:51:07 AM 36.4860 -88.2100 282° West 443 510 36,000  Level FlightAware ADS-B
Thu 08:51:52 AM 36.5060 -88.3250 282° West 444 511 36,000  Level FlightAware ADS-B
Thu 08:52:22 AM 36.5180 -88.4010 281° West 445 512 36,000  Level FlightAware ADS-B
Thu 08:52:57 AM 36.5330 -88.4850 283° West 445 512 36,000  Level FlightAware ADS-B
Thu 08:53:42 AM 36.5520 -88.6000 282° West 446 513 36,000  Level FlightAware ADS-B
Thu 08:54:27 AM 36.5700 -88.7110 281° West 448 516 36,000  Level FlightAware ADS-B
Thu 08:55:07 AM 36.5870 -88.8110 282° West 447 514 36,000  Level FlightAware ADS-B
Thu 08:55:47 AM 36.6030 -88.9110 281° West 450 518 36,000  Level FlightAware ADS-B
Thu 08:56:32 AM 36.6190 -89.0160 281° West 449 517 36,000  Level FlightAware ADS-B
Thu 08:57:07 AM 36.6370 -89.1160 283° West 452 520 36,000  Level FlightAware ADS-B
Thu 08:57:57 AM 36.6570 -89.2410 281° West 452 520 36,000  Level FlightAware ADS-B
Thu 08:58:52 AM 36.6780 -89.3740 281° West 453 521 36,000  Level FlightAware ADS-B
Thu 08:59:22 AM 36.6880 -89.4390 281° West 453 521 36,000  Level FlightAware ADS-B
Thu 09:00:12 AM 36.7050 -89.5490 281° West 453 521 36,000  Level FlightAware ADS-B
Thu 09:00:52 AM 36.7180 -89.6360 281° West 453 521 36,000  Level FlightAware ADS-B
Thu 09:01:42 AM 36.7350 -89.7450 281° West 453 521 36,000  Level FlightAware ADS-B
Thu 09:02:22 AM 36.7490 -89.8320 281° West 453 521 36,000  Level FlightAware ADS-B
Thu 09:03:02 AM 36.7630 -89.9190 281° West 453 521 36,000  Level FlightAware ADS-B
Thu 09:03:42 AM 36.7760 -90.0070 280° West 453 521 36,000  Level FlightAware ADS-B
Thu 09:04:22 AM 36.7900 -90.0940 281° West 453 521 36,000  Level FlightAware ADS-B
Thu 09:05:02 AM 36.8030 -90.1820 280° West 453 521 36,000  Level FlightAware ADS-B
Thu 09:05:52 AM 36.8200 -90.2910 281° West 453 521 36,000  Level FlightAware ADS-B
Thu 09:06:32 AM 36.8340 -90.3780 281° West 453 521 36,000  Level FlightAware ADS-B
Thu 09:07:12 AM 36.8470 -90.4660 280° West 453 521 36,000  Level FlightAware ADS-B
Thu 09:07:52 AM 36.8610 -90.5530 281° West 453 521 36,000  Level FlightAware ADS-B
Thu 09:08:17 AM 36.8981 -90.8119 281° West 437 503 36,000  Level Kansas City Center
Thu 09:09:19 AM 36.9200 -90.9642 280° West 443 510 36,000  Level Kansas City Center
Thu 09:10:20 AM 36.9417 -91.1167 280° West 445 512 36,000  Level Kansas City Center
Thu 09:11:21 AM 36.9639 -91.2722 280° West 449 517 36,000  Level Kansas City Center
Thu 09:12:23 AM 36.9861 -91.4294 280° West 452 520 36,000 49 Level Kansas City Center
Thu 09:13:24 AM 37.0081 -91.5825 280° West 449 517 36,100  Climbing Kansas City Center
Thu 09:14:25 AM 37.0289 -91.7358 280° West 445 512 36,000 -49 Descending Kansas City Center
Thu 09:15:27 AM 37.0483 -91.8892 279° West 444 511 36,000 -49 Level Kansas City Center
Thu 09:16:28 AM 37.0739 -92.0678 280° West 436 502 35,900  Descending Kansas City Center
Thu 09:17:29 AM 37.0953 -92.2206 280° West 439 505 36,000 49 Climbing Kansas City Center
Thu 09:18:31 AM 37.1161 -92.3719 280° West 438 504 36,000 49 Level Kansas City Center
Thu 09:19:32 AM 37.1353 -92.5231 279° West 436 502 36,100  Climbing Kansas City Center
Thu 09:20:33 AM 37.1553 -92.6731 280° West 435 501 36,000 -49 Descending Kansas City Center
Thu 09:21:35 AM 37.1747 -92.8214 279° West 430 495 36,000  Level Kansas City Center
Thu 09:22:36 AM 37.1939 -92.9711 279° West 431 496 36,000  Level Kansas City Center
Thu 09:23:38 AM 37.2122 -93.1186 279° West 426 490 36,000  Level Kansas City Center
Thu 09:24:39 AM 37.2306 -93.2664 279° West 426 490 36,000  Level Kansas City Center
Thu 09:25:40 AM 37.2492 -93.4128 279° West 424 488 36,000  Level Kansas City Center
Thu 09:26:42 AM 37.2669 -93.5597 279° West 424 488 36,000  Level Kansas City Center
Thu 09:27:43 AM 37.2842 -93.7067 278° West 423 487 36,000  Level Kansas City Center
Thu 09:28:45 AM 37.3019 -93.8556 279° West 427 491 36,000  Level Kansas City Center
Thu 09:29:46 AM 37.3236 -94.0358 279° West 431 496 36,000  Level Kansas City Center
Thu 09:35:57 AM 37.4270 -94.9370 279° West 422 486 36,000  Level FlightAware ADS-B
Thu 09:36:42 AM 37.4370 -95.0380 277° West 422 486 36,000  Level FlightAware ADS-B
Thu 09:37:32 AM 37.4520 -95.1730 278° West 425 489 36,000  Level FlightAware ADS-B
Thu 09:38:12 AM 37.4600 -95.2570 277° West 425 489 36,000  Level FlightAware ADS-B
Thu 09:39:02 AM 37.4710 -95.3610 278° West 425 489 36,000  Level FlightAware ADS-B
Thu 09:39:42 AM 37.4790 -95.4450 277° West 425 489 36,000  Level FlightAware ADS-B
Thu 09:40:22 AM 37.4870 -95.5280 277° West 425 489 36,000  Level FlightAware ADS-B
Thu 09:41:02 AM 37.4950 -95.6120 277° West 425 489 36,000  Level FlightAware ADS-B
Thu 09:41:42 AM 37.5030 -95.6960 277° West 425 489 36,000  Level FlightAware ADS-B
Thu 09:42:32 AM 37.5130 -95.8000 277° West 425 489 36,000  Level FlightAware ADS-B
Thu 09:43:12 AM 37.5210 -95.8840 277° West 425 489 36,000  Level FlightAware ADS-B
Thu 09:43:52 AM 37.5300 -95.9680 278° West 425 489 36,000  Level FlightAware ADS-B
Thu 09:44:32 AM 37.5380 -96.0510 277° West 425 489 36,000  Level FlightAware ADS-B
Thu 09:45:12 AM 37.5460 -96.1350 277° West 425 489 36,000  Level FlightAware ADS-B
Thu 09:46:02 AM 37.5560 -96.2400 277° West 425 489 36,000  Level FlightAware ADS-B
Thu 09:46:42 AM 37.5640 -96.3230 277° West 425 489 36,000  Level FlightAware ADS-B
Thu 09:47:32 AM 37.6010 -96.6310 279° West 36,000  Level FlightAware ADS-B
Thu 09:48:47 AM 37.6180 -96.8140 277° West 412 474 36,000 50 Level FlightAware ADS-B
Thu 09:49:32 AM 37.6280 -96.9220 277° West 409 471 36,100  Climbing FlightAware ADS-B
Thu 09:50:12 AM 37.6370 -97.0150 277° West 408 470 36,000 -71 Descending FlightAware ADS-B
Thu 09:50:57 AM 37.6470 -97.1220 277° West 407 468 36,000  Level FlightAware ADS-B
Thu 09:51:37 AM 37.6550 -97.2150 276° West 405 466 36,000  Level FlightAware ADS-B
Thu 09:52:17 AM 37.6640 -97.3090 277° West 404 465 36,000  Level FlightAware ADS-B
Thu 09:53:02 AM 37.6730 -97.4090 277° West 404 465 36,000  Level FlightAware ADS-B
Thu 09:53:42 AM 37.6810 -97.5070 276° West 403 464 36,000  Level FlightAware ADS-B
Thu 09:54:22 AM 37.6900 -97.6020 277° West 404 465 36,000  Level FlightAware ADS-B
Thu 09:55:07 AM 37.6990 -97.7060 276° West 403 464 36,000  Level FlightAware ADS-B
Thu 09:55:47 AM 37.7070 -97.7980 276° West 403 464 36,000  Level FlightAware ADS-B
Thu 09:56:32 AM 37.7150 -97.9040 275° West 403 464 36,000  Level FlightAware ADS-B
Thu 09:57:12 AM 37.7230 -97.9990 276° West 404 465 36,000  Level FlightAware ADS-B
Thu 09:57:57 AM 37.7320 -98.1040 276° West 404 465 36,000  Level FlightAware ADS-B
Thu 09:58:37 AM 37.7400 -98.1970 276° West 405 466 36,000  Level FlightAware ADS-B
Thu 09:59:12 AM 37.7460 -98.2690 276° West 405 466 36,000  Level FlightAware ADS-B
Thu 10:00:17 AM 37.7520 -98.3470 276° West 406 467 36,000  Level FlightAware ADS-B
Thu 10:00:57 AM 37.7660 -98.5250 276° West 409 471 36,000  Level FlightAware ADS-B
Thu 10:01:52 AM 37.7770 -98.6570 276° West 410 472 36,000  Level FlightAware ADS-B
Thu 10:02:32 AM 37.7840 -98.7460 276° West 410 472 36,000  Level FlightAware ADS-B
Thu 10:03:12 AM 37.7910 -98.8270 276° West 410 472 36,000  Level FlightAware ADS-B
Thu 10:03:52 AM 37.7970 -98.9080 275° West 410 472 36,000 -533 Level FlightAware ADS-B
Thu 10:05:27 AM 37.8150 -99.1580 275° West 404 465 34,800 -800 Descending FlightAware ADS-B
Thu 10:06:22 AM 37.8150 -99.1580 275° West 404 465 34,000 -505 Descending FlightAware ADS-B
Thu 10:07:02 AM 37.8220 -99.2380 276° West 404 465 34,000  Level FlightAware ADS-B
Thu 10:07:42 AM 37.8280 -99.3180 275° West 404 465 34,000  Level FlightAware ADS-B
Thu 10:08:22 AM 37.8350 -99.3980 276° West 404 465 34,000  Level FlightAware ADS-B
Thu 10:09:12 AM 37.8430 -99.4980 276° West 404 465 34,000  Level FlightAware ADS-B
Thu 10:09:52 AM 37.8500 -99.5780 276° West 404 465 34,000  Level FlightAware ADS-B
Thu 10:10:32 AM 37.8570 -99.6580 276° West 404 465 34,000  Level FlightAware ADS-B
Thu 10:11:12 AM 37.8630 -99.7380 275° West 404 465 34,000  Level FlightAware ADS-B
Thu 10:11:52 AM 37.8700 -99.8180 276° West 404 465 34,000  Level FlightAware ADS-B
Thu 10:12:42 AM 37.8780 -99.9180 276° West 404 465 34,000  Level FlightAware ADS-B
Thu 10:13:22 AM 37.8850 -99.9980 276° West 404 465 34,000  Level FlightAware ADS-B
Thu 10:14:02 AM 37.8910 -100.0780 275° West 404 465 34,000  Level FlightAware ADS-B
Thu 10:14:42 AM 37.8980 -100.1580 276° West 404 465 34,000  Level FlightAware ADS-B
Thu 10:15:22 AM 37.9050 -100.2380 276° West 404 465 34,000 102 Level FlightAware ADS-B
Thu 10:15:41 AM 37.9139 -100.6300 276° West 407 468 34,100  Climbing Denver Center
Thu 10:15:58 AM 37.9181 -100.6747 277° West 407 468 34,000 -76 Descending Kansas City Center
Thu 10:17:00 AM 37.9550 -100.8233 288° West 401 461 34,000  Level Kansas City Center
Thu 10:17:44 AM 37.9875 -100.9033 297° West 403 464 34,000  Level Denver Center
Thu 10:18:46 AM 38.0417 -101.0453 296° West 403 464 34,000  Level Denver Center
Thu 10:19:48 AM 38.0894 -101.1714 296° West 414 476 34,000  Level Denver Center
Thu 10:20:50 AM 38.1456 -101.3167 296° West 412 474 34,000 -535 Level Denver Center
Thu 10:27:17 AM 38.5330 -102.1300 296° West 413 475 30,000 -576 Descending FlightAware ADS-B
Thu 10:27:47 AM 38.5638 -102.1930 302° West 415 478 30,000  Level FlightAware ADS-B
Thu 10:28:18 AM 38.5948 -102.2560 302° West 418 481 30,000  Level FlightAware ADS-B
Thu 10:28:48 AM 38.6264 -102.3210 302° West 421 484 30,000  Level FlightAware ADS-B
Thu 10:29:19 AM 38.6576 -102.3850 302° West 418 481 30,000  Level FlightAware ADS-B
Thu 10:29:49 AM 38.6884 -102.4480 302° West 418 481 30,000  Level FlightAware ADS-B
Thu 10:30:19 AM 38.7190 -102.5110 302° West 419 482 30,000  Level FlightAware ADS-B
Thu 10:30:49 AM 38.7502 -102.5750 302° West 418 481 30,000  Level FlightAware ADS-B
Thu 10:31:20 AM 38.7811 -102.6390 302° West 417 480 30,000  Level FlightAware ADS-B
Thu 10:31:50 AM 38.8119 -102.7030 302° West 418 481 30,000  Level FlightAware ADS-B
Thu 10:32:20 AM 38.8425 -102.7660 302° West 414 476 30,000  Level FlightAware ADS-B
Thu 10:32:51 AM 38.8731 -102.8300 302° West 411 473 30,000  Level FlightAware ADS-B
Thu 10:33:21 AM 38.9032 -102.8920 302° West 412 474 30,000  Level FlightAware ADS-B
Thu 10:33:53 AM 38.9353 -102.9590 302° West 412 474 30,000 -95 Level FlightAware ADS-B
Thu 10:34:24 AM 38.9660 -103.0240 301° West 410 472 29,900 -492 Descending FlightAware ADS-B
Thu 10:34:54 AM 38.9958 -103.0860 302° West 409 471 29,500 -900 Descending FlightAware ADS-B
Thu 10:35:24 AM 39.0255 -103.1480 302° West 403 464 29,000 -1,180 Descending FlightAware ADS-B
Thu 10:35:55 AM 39.0547 -103.2100 301° West 399 459 28,300 -1,770 Descending FlightAware ADS-B
Thu 10:36:25 AM 39.0833 -103.2700 302° West 392 451 27,200 -2,200 Descending FlightAware ADS-B
Thu 10:36:55 AM 39.1118 -103.3300 301° West 386 444 26,100 -2,066 Descending FlightAware ADS-B
Thu 10:37:26 AM 39.1401 -103.3900 301° West 379 436 25,100 -2,066 Descending FlightAware ADS-B
Thu 10:37:56 AM 39.1675 -103.4480 301° West 372 428 24,000 -2,100 Descending FlightAware ADS-B
Thu 10:38:26 AM 39.1941 -103.5050 301° West 366 421 23,000 -1,967 Descending FlightAware ADS-B
Thu 10:38:57 AM 39.2206 -103.5610 301° West 358 412 22,000 -1,869 Descending FlightAware ADS-B
Thu 10:39:27 AM 39.2463 -103.6160 301° West 351 404 21,100 -1,900 Descending FlightAware ADS-B
Thu 10:39:57 AM 39.2714 -103.6690 301° West 346 398 20,100 -1,967 Descending FlightAware ADS-B
Thu 10:40:28 AM 39.2962 -103.7220 301° West 341 392 19,100 -1,967 Descending FlightAware ADS-B
Thu 10:40:58 AM 39.3206 -103.7750 301° West 336 387 18,100 -1,900 Descending FlightAware ADS-B
Thu 10:41:28 AM 39.3446 -103.8260 301° West 330 380 17,200 -1,300 Descending FlightAware ADS-B
Thu 10:41:58 AM 39.3676 -103.8760 301° West 309 356 16,800 -787 Descending FlightAware ADS-B
Thu 10:42:29 AM 39.3898 -103.9230 301° West 291 335 16,400 -649 Descending FlightAware ADS-B
Thu 10:42:35 AM 39.3931 -103.9320 295° West 288 331 16,400 -600 Level FlightAware ADS-B
Thu 10:42:39 AM 39.3951 -103.9400 288° West 287 330 16,300 -1,333 Descending FlightAware ADS-B
Thu 10:42:44 AM 39.3965 -103.9470 285° West 287 330 16,200 -1,200 Descending FlightAware ADS-B
Thu 10:43:14 AM 39.3996 -104.0010 274° West 299 344 15,600 -1,300 Descending FlightAware ADS-B
Thu 10:43:44 AM 39.4020 -104.0540 273° West 301 346 14,900 -1,300 Descending FlightAware ADS-B
Thu 10:44:14 AM 39.4043 -104.1070 273° West 294 338 14,300 -1,279 Descending FlightAware ADS-B
Thu 10:44:45 AM 39.4067 -104.1610 273° West 286 329 13,600 -1,279 Descending FlightAware ADS-B
Thu 10:45:15 AM 39.4089 -104.2120 273° West 280 322 13,000 -1,200 Descending FlightAware ADS-B
Thu 10:45:45 AM 39.4110 -104.2620 273° West 273 314 12,400 -1,500 Descending FlightAware ADS-B
Thu 10:46:07 AM 39.4125 -104.2970 273° West 280 322 11,700 -1,846 Descending FlightAware ADS-B
Thu 10:46:11 AM 39.4131 -104.3040 276° West 279 321 11,600 -1,500 Descending FlightAware ADS-B
Thu 10:46:15 AM 39.4140 -104.3100 281° West 277 319 11,500 -1,714 Descending FlightAware ADS-B
Thu 10:46:18 AM 39.4153 -104.3160 286° West 275 316 11,400 -1,500 Descending FlightAware ADS-B
Thu 10:46:23 AM 39.4177 -104.3230 294° West 273 314 11,300 -600 Descending FlightAware ADS-B
Thu 10:46:28 AM 39.4208 -104.3290 304° West 270 311 11,300 -1,029 Level FlightAware ADS-B
Thu 10:46:58 AM 39.4424 -104.3680 306° West 261 300 10,700 -1,345 Descending FlightAware ADS-B
Thu 10:47:26 AM 39.4622 -104.4030 306° West 260 299 10,000 -1,395 Descending FlightAware ADS-B
Thu 10:47:41 AM 39.4733 -104.4220 307° West 257 296 9,700 -1,200 Descending FlightAware ADS-B
Thu 10:47:56 AM 39.4844 -104.4410 307° West 253 291 9,400 -1,111 Descending FlightAware ADS-B
Thu 10:48:08 AM 39.4926 -104.4540 309° West 250 288 9,200 -1,333 Descending FlightAware ADS-B
Thu 10:48:23 AM 39.5037 -104.4720 309° West 252 290 8,800 -1,846 Descending FlightAware ADS-B
Thu 10:48:34 AM 39.5113 -104.4850 307° West 255 293 8,400 -1,875 Descending FlightAware ADS-B
Thu 10:48:39 AM 39.5152 -104.4910 310° West 256 295 8,300 -1,500 Descending FlightAware ADS-B
Thu 10:48:42 AM 39.5185 -104.4950 317° Northwest 256 295 8,200 -1,714 Descending FlightAware ADS-B
Thu 10:48:46 AM 39.5220 -104.4980 327° Northwest 255 293 8,100 -1,500 Descending FlightAware ADS-B
Thu 10:48:50 AM 39.5262 -104.5010 331° Northwest 254 292 8,000 -1,200 Descending FlightAware ADS-B
Thu 10:49:06 AM 39.5428 -104.5120 333° Northwest 249 287 7,700 -1,161 Descending FlightAware ADS-B
Thu 10:49:21 AM 39.5585 -104.5220 334° Northwest 246 283 7,400 -1,200 Descending FlightAware ADS-B
Thu 10:49:36 AM 39.5739 -104.5310 336° Northwest 245 282 7,100 -1,161 Descending FlightAware ADS-B
Thu 10:49:52 AM 39.5892 -104.5410 333° Northwest 242 278 6,800 -1,161 Descending FlightAware ADS-B
Thu 10:50:07 AM 39.6048 -104.5510 334° Northwest 240 276 6,500 -774 Descending FlightAware ADS-B
Thu 10:50:23 AM 39.6207 -104.5610 334° Northwest 237 273 6,400 -194 Descending FlightAware ADS-B
Thu 10:50:38 AM 39.6358 -104.5710 333° Northwest 242 278 6,400 -200 Level FlightAware ADS-B
Thu 10:50:53 AM 39.6513 -104.5800 336° Northwest 243 280 6,300 -194 Descending FlightAware ADS-B
Thu 10:51:09 AM 39.6671 -104.5900 334° Northwest 242 278 6,300  Level FlightAware ADS-B
Thu 10:51:25 AM 39.6835 -104.6010 333° Northwest 242 278 6,300  Level FlightAware ADS-B
Thu 10:51:41 AM 39.6988 -104.6110 333° Northwest 236 272 6,300  Level FlightAware ADS-B
Thu 10:51:56 AM 39.7135 -104.6200 335° Northwest 219 252 6,300  Level FlightAware ADS-B
Thu 10:52:13 AM 39.7280 -104.6290 334° Northwest 200 230 6,300 182 Level FlightAware ADS-B
Thu 10:52:29 AM 39.7408 -104.6370 334° Northwest 190 219 6,400  Climbing FlightAware ADS-B
Thu 10:52:36 AM 39.7462 -104.6400 337° Northwest 189 217 6,300 -429 Descending FlightAware ADS-B
Thu 10:52:43 AM 39.7523 -104.6420 346° North 187 215 6,300  Level FlightAware ADS-B
Thu 10:52:47 AM 39.7557 -104.6420 360° North 184 212 6,300 -600 Level FlightAware ADS-B
Thu 10:52:53 AM 39.7606 -104.6420 360° North 178 205 6,200 -1,043 Descending FlightAware ADS-B
Thu 10:53:10 AM 39.7746 -104.6420 360° North 169 194 5,900 -1,000 Descending FlightAware ADS-B
Thu 10:53:17 AM 39.7800 -104.6420 360° North 159 183 5,800 -857 Descending FlightAware ADS-B
Thu 10:53:31 AM 39.7900 -104.6420 360° North 152 175 5,600 -800 Descending FlightAware ADS-B
Thu 10:53:47 AM 39.8007 -104.6420 360° North 150 173 5,400 -960 Descending FlightAware ADS-B
Thu 10:53:56 AM 39.8073 -104.6420 360° North 150 173 5,200 -1,059 Descending FlightAware ADS-B
Thu 10:54:04 AM 39.8127 -104.6420 360° North 151 174 5,100 -750 Descending FlightAware ADS-B
Thu 10:54:12 AM 39.8182 -104.6420 360° North 151 174 5,000 -750 Descending FlightAware ADS-B

Login

Don't have an account? Register now (free) for customized features, flight alerts, and more!